Terminal Aerodrome Forecast
Issued by NWS Bismarck, ND

Home | Current Version | Previous Version | Graphics & Text | Print | Product List | Glossary On
Versions: 1 2 3 4 5 6 7 8 9 10 11 12 13 14 15 16 17 18 19 20 21 22 23 24 25 26 27 28 29 30
154
FTUS43 KBIS 162330
TAFISN
TAF
KISN 162330Z 1700/1724 12017G30KT P6SM FEW250
     FM170200 12017G25KT P6SM SCT250 WS020/14045KT
     FM170500 12016G25KT P6SM SCT200 WS020/14055KT
     FM171200 13012G20KT P6SM BKN130 WS020/15045KT
     FM171400 13012G21KT P6SM OVC050
     FM171500 14012G21KT P6SM VCSH OVC015
     FM171900 13010KT 6SM -RA OVC010=

USA.gov is the U.S. government's official web portal to all federal, state and local government web resources and services.